sensor_id;sensor_type;location;lat;lon;timestamp;pressure;altitude;pressure_sealevel;temperature;humidity
64243;BME280;50573;51.512;5.386;2023-02-25T00:09:24;100568.44;;;3.51;100.00
64243;BME280;50573;51.512;5.386;2023-02-25T00:19:29;100556.19;;;3.32;100.00
64243;BME280;50573;51.512;5.386;2023-02-25T00:29:32;100558.91;;;3.15;100.00
64243;BME280;50573;51.512;5.386;2023-02-25T00:39:37;100567.41;;;3.06;100.00
64243;BME280;50573;51.512;5.386;2023-02-25T00:49:44;100559.31;;;3.03;100.00
64243;BME280;50573;51.512;5.386;2023-02-25T00:59:49;100565.06;;;3.12;100.00
64243;BME280;50573;51.512;5.386;2023-02-25T01:09:54;100548.91;;;3.26;100.00
64243;BME280;50573;51.512;5.386;2023-02-25T01:19:58;100562.38;;;3.19;100.00
64243;BME280;50573;51.512;5.386;2023-02-25T01:30:01;100558.91;;;3.18;100.00
64243;BME280;50573;51.512;5.386;2023-02-25T01:40:07;100569.63;;;3.39;100.00
64243;BME280;50573;51.512;5.386;2023-02-25T01:50:10;100572.63;;;3.55;100.00
64243;BME280;50573;51.512;5.386;2023-02-25T02:00:16;100578.03;;;3.52;100.00
64243;BME280;50573;51.512;5.386;2023-02-25T02:10:19;100574.25;;;3.39;100.00
64243;BME280;50573;51.512;5.386;2023-02-25T02:20:25;100579.69;;;3.18;100.00
64243;BME280;50573;51.512;5.386;2023-02-25T02:30:37;100575.44;;;3.13;100.00
64243;BME280;50573;51.512;5.386;2023-02-25T02:40:52;100576.59;;;3.02;100.00
64243;BME280;50573;51.512;5.386;2023-02-25T02:50:59;100578.16;;;2.96;100.00
64243;BME280;50573;51.512;5.386;2023-02-25T03:01:07;100588.16;;;3.06;100.00
64243;BME280;50573;51.512;5.386;2023-02-25T03:11:13;100590.81;;;3.20;100.00
64243;BME280;50573;51.512;5.386;2023-02-25T03:21:24;100591.19;;;3.32;100.00
64243;BME280;50573;51.512;5.386;2023-02-25T03:31:32;100587.66;;;3.46;100.00
64243;BME280;50573;51.512;5.386;2023-02-25T03:41:41;100588.81;;;3.52;100.00
64243;BME280;50573;51.512;5.386;2023-02-25T03:51:48;100600.78;;;3.30;100.00
64243;BME280;50573;51.512;5.386;2023-02-25T04:01:54;100598.91;;;3.09;100.00
64243;BME280;50573;51.512;5.386;2023-02-25T04:11:58;100600.81;;;3.12;100.00
64243;BME280;50573;51.512;5.386;2023-02-25T04:22:05;100613.50;;;3.26;100.00
64243;BME280;50573;51.512;5.386;2023-02-25T04:32:09;100608.09;;;3.33;100.00
64243;BME280;50573;51.512;5.386;2023-02-25T04:42:14;100608.88;;;3.37;100.00
64243;BME280;50573;51.512;5.386;2023-02-25T04:52:17;100628.88;;;3.29;100.00
64243;BME280;50573;51.512;5.386;2023-02-25T05:02:21;100631.56;;;3.15;100.00
64243;BME280;50573;51.512;5.386;2023-02-25T05:12:25;100619.25;;;3.10;100.00
64243;BME280;50573;51.512;5.386;2023-02-25T05:22:29;100628.91;;;2.90;100.00
64243;BME280;50573;51.512;5.386;2023-02-25T05:32:32;100620.06;;;2.75;100.00
64243;BME280;50573;51.512;5.386;2023-02-25T05:42:37;100615.44;;;2.62;100.00
64243;BME280;50573;51.512;5.386;2023-02-25T05:52:40;100616.56;;;2.50;100.00
64243;BME280;50573;51.512;5.386;2023-02-25T06:02:44;100628.44;;;2.39;100.00
64243;BME280;50573;51.512;5.386;2023-02-25T06:12:47;100639.91;;;2.29;100.00
64243;BME280;50573;51.512;5.386;2023-02-25T06:22:51;100651.81;;;2.28;100.00
64243;BME280;50573;51.512;5.386;2023-02-25T06:32:55;100652.97;;;2.23;100.00
64243;BME280;50573;51.512;5.386;2023-02-25T06:42:59;100657.56;;;2.23;100.00
64243;BME280;50573;51.512;5.386;2023-02-25T06:53:02;100668.72;;;2.35;100.00
64243;BME280;50573;51.512;5.386;2023-02-25T07:03:08;100672.59;;;2.45;100.00
64243;BME280;50573;51.512;5.386;2023-02-25T07:13:12;100679.56;;;2.63;100.00
64243;BME280;50573;51.512;5.386;2023-02-25T07:23:17;100702.22;;;2.66;100.00
64243;BME280;50573;51.512;5.386;2023-02-25T07:33:20;100719.91;;;2.63;100.00
64243;BME280;50573;51.512;5.386;2023-02-25T07:43:24;100713.72;;;2.59;100.00
64243;BME280;50573;51.512;5.386;2023-02-25T07:53:27;100728.75;;;2.71;100.00
64243;BME280;50573;51.512;5.386;2023-02-25T08:03:32;100727.22;;;2.80;100.00
64243;BME280;50573;51.512;5.386;2023-02-25T08:13:35;100744.94;;;3.10;100.00
64243;BME280;50573;51.512;5.386;2023-02-25T08:23:40;100738.81;;;3.41;100.00
64243;BME280;50573;51.512;5.386;2023-02-25T08:33:45;100762.59;;;4.16;98.97
64243;BME280;50573;51.512;5.386;2023-02-25T08:43:52;100758.56;;;4.66;95.36
64243;BME280;50573;51.512;5.386;2023-02-25T08:53:56;100768.63;;;5.20;92.41
64243;BME280;50573;51.512;5.386;2023-02-25T09:04:00;100778.47;;;5.48;90.01
64243;BME280;50573;51.512;5.386;2023-02-25T09:14:03;100790.97;;;5.76;89.39
64243;BME280;50573;51.512;5.386;2023-02-25T09:24:08;100793.91;;;5.95;87.92
64243;BME280;50573;51.512;5.386;2023-02-25T09:34:12;100815.84;;;6.08;86.79
64243;BME280;50573;51.512;5.386;2023-02-25T09:44:19;100812.28;;;6.14;85.46
64243;BME280;50573;51.512;5.386;2023-02-25T09:54:25;100828.81;;;6.57;85.41
64243;BME280;50573;51.512;5.386;2023-02-25T10:04:36;100837.47;;;6.45;81.65
64243;BME280;50573;51.512;5.386;2023-02-25T10:14:56;100858.13;;;6.65;81.71
64243;BME280;50573;51.512;5.386;2023-02-25T10:25:10;100864.81;;;6.54;86.04
64243;BME280;50573;51.512;5.386;2023-02-25T10:35:18;100869.19;;;6.41;88.87
64243;BME280;50573;51.512;5.386;2023-02-25T10:45:26;100876.81;;;6.53;89.33
64243;BME280;50573;51.512;5.386;2023-02-25T10:55:38;100892.44;;;6.35;88.00
64243;BME280;50573;51.512;5.386;2023-02-25T11:05:44;100882.28;;;6.83;86.63
64243;BME280;50573;51.512;5.386;2023-02-25T11:15:50;100894.47;;;7.28;80.16
64243;BME280;50573;51.512;5.386;2023-02-25T11:25:54;100900.16;;;7.07;80.09
64243;BME280;50573;51.512;5.386;2023-02-25T11:35:59;100902.56;;;7.62;77.58
64243;BME280;50573;51.512;5.386;2023-02-25T11:46:06;100920.25;;;7.70;70.41
64243;BME280;50573;51.512;5.386;2023-02-25T11:56:19;100913.38;;;7.62;66.03
64243;BME280;50573;51.512;5.386;2023-02-25T12:06:38;100906.69;;;7.93;64.73
64243;BME280;50573;51.512;5.386;2023-02-25T12:17:19;100917.56;;;7.93;66.00
64243;BME280;50573;51.512;5.386;2023-02-25T12:27:50;100937.88;;;6.91;63.54
64243;BME280;50573;51.512;5.386;2023-02-25T12:38:27;100948.63;;;6.98;60.09
64243;BME280;50573;51.512;5.386;2023-02-25T12:48:50;100959.31;;;6.75;64.06
64243;BME280;50573;51.512;5.386;2023-02-25T13:09:55;100952.09;;;6.21;71.57
64243;BME280;50573;51.512;5.386;2023-02-25T13:20:35;100971.28;;;5.75;73.18
64243;BME280;50573;51.512;5.386;2023-02-25T13:30:50;100968.00;;;6.08;72.65
64243;BME280;50573;51.512;5.386;2023-02-25T13:41:10;100960.47;;;6.33;67.77
64243;BME280;50573;51.512;5.386;2023-02-25T13:51:46;100956.19;;;6.80;67.81
64243;BME280;50573;51.512;5.386;2023-02-25T14:02:12;100965.56;;;7.39;56.49
64243;BME280;50573;51.512;5.386;2023-02-25T14:12:30;100981.09;;;7.35;53.29
64243;BME280;50573;51.512;5.386;2023-02-25T14:22:39;100998.63;;;6.90;52.41
64243;BME280;50573;51.512;5.386;2023-02-25T14:32:57;100998.41;;;7.11;52.52
64243;BME280;50573;51.512;5.386;2023-02-25T14:43:26;101019.53;;;7.23;49.84
64243;BME280;50573;51.512;5.386;2023-02-25T14:53:51;101035.75;;;6.89;50.50
64243;BME280;50573;51.512;5.386;2023-02-25T15:04:45;101044.91;;;7.02;50.86
64243;BME280;50573;51.512;5.386;2023-02-25T15:15:06;101052.78;;;7.31;52.49
64243;BME280;50573;51.512;5.386;2023-02-25T15:25:36;101063.38;;;6.74;50.58
64243;BME280;50573;51.512;5.386;2023-02-25T15:36:21;101093.59;;;6.65;49.92
64243;BME280;50573;51.512;5.386;2023-02-25T15:46:42;101091.50;;;6.87;52.03
64243;BME280;50573;51.512;5.386;2023-02-25T15:56:49;101107.09;;;6.69;52.11
64243;BME280;50573;51.512;5.386;2023-02-25T16:06:53;101114.59;;;6.47;56.51
64243;BME280;50573;51.512;5.386;2023-02-25T16:16:59;101141.38;;;6.28;56.30
64243;BME280;50573;51.512;5.386;2023-02-25T16:27:08;101153.09;;;5.97;57.01
64243;BME280;50573;51.512;5.386;2023-02-25T16:37:23;101174.78;;;5.61;52.38
64243;BME280;50573;51.512;5.386;2023-02-25T16:47:31;101174.81;;;5.37;52.17
64243;BME280;50573;51.512;5.386;2023-02-25T16:57:36;101201.81;;;5.16;52.20
64243;BME280;50573;51.512;5.386;2023-02-25T17:07:39;101218.78;;;4.95;53.47
64243;BME280;50573;51.512;5.386;2023-02-25T17:17:44;101224.13;;;4.71;54.22
64243;BME280;50573;51.512;5.386;2023-02-25T17:27:51;101219.44;;;4.47;55.34
64243;BME280;50573;51.512;5.386;2023-02-25T17:37:56;101231.28;;;4.28;56.58
64243;BME280;50573;51.512;5.386;2023-02-25T17:47:59;101247.03;;;4.15;57.92
64243;BME280;50573;51.512;5.386;2023-02-25T17:58:04;101274.59;;;3.91;59.18
64243;BME280;50573;51.512;5.386;2023-02-25T18:08:16;101283.72;;;3.76;60.85
64243;BME280;50573;51.512;5.386;2023-02-25T18:18:21;101302.16;;;3.67;61.96
64243;BME280;50573;51.512;5.386;2023-02-25T18:28:24;101324.34;;;3.54;62.04
64243;BME280;50573;51.512;5.386;2023-02-25T18:38:29;101343.84;;;3.44;62.23
64243;BME280;50573;51.512;5.386;2023-02-25T18:48:33;101348.69;;;3.28;63.53
64243;BME280;50573;51.512;5.386;2023-02-25T18:58:38;101360.06;;;3.11;65.19
64243;BME280;50573;51.512;5.386;2023-02-25T19:08:41;101365.97;;;2.90;65.85
64243;BME280;50573;51.512;5.386;2023-02-25T19:18:46;101363.03;;;2.72;66.41
64243;BME280;50573;51.512;5.386;2023-02-25T19:28:49;101378.53;;;2.53;67.90
64243;BME280;50573;51.512;5.386;2023-02-25T19:38:54;101376.50;;;2.43;68.38
64243;BME280;50573;51.512;5.386;2023-02-25T19:48:57;101380.56;;;2.33;69.61
64243;BME280;50573;51.512;5.386;2023-02-25T19:59:02;101395.88;;;2.29;69.25
64243;BME280;50573;51.512;5.386;2023-02-25T20:09:07;101403.41;;;2.20;69.57
64243;BME280;50573;51.512;5.386;2023-02-25T20:19:11;101420.22;;;2.17;70.50
64243;BME280;50573;51.512;5.386;2023-02-25T20:29:15;101430.69;;;2.00;70.55
64243;BME280;50573;51.512;5.386;2023-02-25T20:39:33;101439.69;;;1.88;71.62
64243;BME280;50573;51.512;5.386;2023-02-25T20:49:41;101446.38;;;1.75;72.19
64243;BME280;50573;51.512;5.386;2023-02-25T20:59:47;101460.16;;;1.74;71.83
64243;BME280;50573;51.512;5.386;2023-02-25T21:09:50;101463.66;;;1.55;73.26
64243;BME280;50573;51.512;5.386;2023-02-25T21:19:55;101464.31;;;1.29;73.16
64243;BME280;50573;51.512;5.386;2023-02-25T21:29:58;101477.66;;;1.07;75.89
64243;BME280;50573;51.512;5.386;2023-02-25T21:40:03;101464.75;;;0.78;75.71
64243;BME280;50573;51.512;5.386;2023-02-25T21:50:07;101504.88;;;0.74;75.79
64243;BME280;50573;51.512;5.386;2023-02-25T22:00:13;101505.31;;;0.61;76.57
64243;BME280;50573;51.512;5.386;2023-02-25T22:10:16;101516.41;;;0.44;77.50
64243;BME280;50573;51.512;5.386;2023-02-25T22:20:24;101513.00;;;0.31;79.08
64243;BME280;50573;51.512;5.386;2023-02-25T22:30:27;101527.88;;;0.29;80.31
64243;BME280;50573;51.512;5.386;2023-02-25T22:40:31;101531.84;;;0.19;80.34
64243;BME280;50573;51.512;5.386;2023-02-25T22:50:34;101538.50;;;0.10;81.13
64243;BME280;50573;51.512;5.386;2023-02-25T23:00:40;101536.81;;;-0.11;81.39
64243;BME280;50573;51.512;5.386;2023-02-25T23:10:44;101530.63;;;-0.27;82.45
64243;BME280;50573;51.512;5.386;2023-02-25T23:20:49;101531.78;;;-0.40;85.14
64243;BME280;50573;51.512;5.386;2023-02-25T23:30:54;101541.56;;;-0.32;84.57
64243;BME280;50573;51.512;5.386;2023-02-25T23:40:58;101542.50;;;-0.40;84.65
64243;BME280;50573;51.512;5.386;2023-02-25T23:51:02;101552.59;;;-0.61;86.46
